Time;durP1;ratioP1;P1;durP2;ratioP2;P2;SDS_P1;SDS_P2;PMS_P1;PMS_P2;Temp;Humidity;BMP_temperature;BMP_pressure;BME280_temperature;BME280_humidity;BME280_pressure;Samples;Min_cycle;Max_cycle;Signal;HPM_P1;HPM_P2
2022/08/26 00:00:27;;;;;;;;;;;;;;;15.71;67.22;101125.78;4425438;32;19976;-69
2022/08/26 00:02:53;;;;;;;;;;;;;;;15.70;67.71;101129.84;4422074;32;20601;-68
2022/08/26 00:05:18;;;;;;;;;;;;;;;15.67;67.80;101134.44;4422220;32;20412;-69
2022/08/26 00:07:44;;;;;;;;;;;;;;;15.66;68.03;101132.84;4424265;32;20328;-68
2022/08/26 00:10:10;;;;;;;;;;;;;;;15.62;67.94;101137.84;4408632;32;19968;-68
2022/08/26 00:12:37;;;;;;;;;;;;;;;15.60;67.27;101131.06;4423577;32;20000;-68
2022/08/26 00:15:04;;;;;;;;;;;;;;;15.55;67.55;101134.50;4423736;32;19949;-68
2022/08/26 00:17:30;;;;;;;;;;;;;;;15.54;67.19;101130.88;4424548;32;20072;-68
2022/08/26 00:19:56;;;;;;;;;;;;;;;15.49;67.50;101137.16;4421053;32;20012;-68
2022/08/26 00:22:21;;;;;;;;;;;;;;;15.43;67.82;101138.19;4424426;32;20346;-68
2022/08/26 00:24:47;;;;;;;;;;;;;;;15.37;68.17;101135.16;4424157;32;20334;-68
2022/08/26 00:27:13;;;;;;;;;;;;;;;15.31;68.40;101136.97;4409340;32;20015;-68
2022/08/26 00:29:38;;;;;;;;;;;;;;;15.41;67.98;101143.56;4423522;32;20061;-68
2022/08/26 00:32:04;;;;;;;;;;;;;;;15.39;68.05;101132.66;4422761;32;19991;-68
2022/08/26 00:34:30;;;;;;;;;;;;;;;15.34;68.48;101140.97;4423782;32;19953;-68
2022/08/26 00:36:55;;;;;;;;;;;;;;;15.27;68.81;101139.16;4424312;32;20423;-68
2022/08/26 00:39:21;;;;;;;;;;;;;;;15.24;68.98;101142.94;4423481;32;19950;-68
2022/08/26 00:41:47;;;;;;;;;;;;;;;15.12;69.30;101140.94;4421763;32;19957;-68
2022/08/26 00:44:13;;;;;;;;;;;;;;;15.17;69.31;101139.56;4423961;32;19988;-68
2022/08/26 00:46:42;;;;;;;;;;;;;;;15.21;69.21;101140.22;4422585;32;20562;-68
2022/08/26 00:49:11;;;;;;;;;;;;;;;15.11;69.95;101132.88;4419537;32;19993;-68
2022/08/26 00:51:43;;;;;;;;;;;;;;;15.10;70.09;101134.91;4422266;32;19983;-68
2022/08/26 00:54:09;;;;;;;;;;;;;;;15.10;69.84;101134.91;4424030;32;19973;-68
2022/08/26 00:56:46;;;;;;;;;;;;;;;15.14;69.87;101134.81;4424883;32;19953;-68
2022/08/26 00:59:12;;;;;;;;;;;;;;;15.23;69.21;101134.87;4421521;32;20357;-68
2022/08/26 01:01:41;;;;;;;;;;;;;;;15.01;69.67;101128.41;4422938;32;19963;-68
2022/08/26 01:04:08;;;;;;;;;;;;;;;15.00;70.04;101126.84;4423580;32;20393;-68
2022/08/26 01:06:33;;;;;;;;;;;;;;;15.00;70.21;101138.16;4421564;32;20032;-68
2022/08/26 01:08:59;;;;;;;;;;;;;;;14.97;70.40;101131.34;4420802;32;20387;-68
2022/08/26 01:11:24;;;;;;;;;;;;;;;14.99;70.16;101128.87;4424590;32;19954;-68
2022/08/26 01:13:53;;;;;;;;;;;;;;;14.96;70.65;101132.63;4425568;32;20160;-68
2022/08/26 01:16:19;;;;;;;;;;;;;;;15.02;70.13;101129.97;4422544;32;20437;-68
2022/08/26 01:18:46;;;;;;;;;;;;;;;14.97;70.57;101130.59;4419029;32;20027;-68
2022/08/26 01:23:49;;;;;;;;;;;;;;;15.45;69.41;101135.69;3948927;32;15833440;-69
2022/08/26 01:26:17;;;;;;;;;;;;;;;15.45;69.41;101135.69;4433476;32;20338;-69
2022/08/26 01:28:43;;;;;;;;;;;;;;;15.03;70.35;101132.34;4428311;32;20183;-69
2022/08/26 01:31:10;;;;;;;;;;;;;;;15.04;70.38;101139.59;4427834;32;20254;-69
2022/08/26 01:33:42;;;;;;;;;;;;;;;15.03;70.29;101142.91;4431369;32;19979;-69
2022/08/26 01:36:07;;;;;;;;;;;;;;;15.01;70.55;101140.53;4428080;32;20506;-69
2022/08/26 01:38:33;;;;;;;;;;;;;;;15.00;70.73;101141.78;4428115;32;19984;-69
2022/08/26 01:41:01;;;;;;;;;;;;;;;14.94;70.52;101134.34;4430502;32;19991;-69
2022/08/26 01:43:28;;;;;;;;;;;;;;;15.00;70.51;101141.78;4431275;32;19965;-69
2022/08/26 01:45:55;;;;;;;;;;;;;;;14.97;70.60;101145.53;4428591;32;19949;-69
2022/08/26 01:48:24;;;;;;;;;;;;;;;14.97;70.57;101153.25;4430483;32;19957;-69
2022/08/26 01:50:50;;;;;;;;;;;;;;;14.98;70.77;101146.31;4426657;32;19962;-69
2022/08/26 01:53:17;;;;;;;;;;;;;;;14.94;71.15;101151.34;4429343;32;20004;-69
2022/08/26 01:55:45;;;;;;;;;;;;;;;14.81;71.59;101154.19;4426399;32;19950;-69
2022/08/26 01:58:13;;;;;;;;;;;;;;;14.92;71.15;101159.50;4431152;32;20823;-69
2022/08/26 02:00:39;;;;;;;;;;;;;;;14.95;71.32;101141.56;4429360;32;20583;-69
2022/08/26 02:03:21;;;;;;;;;;;;;;;14.89;71.40;101157.56;4428456;32;19993;-69
2022/08/26 02:05:52;;;;;;;;;;;;;;;14.90;71.51;101151.44;4429762;32;20010;-69
2022/08/26 02:08:19;;;;;;;;;;;;;;;14.94;71.26;101145.66;4430431;32;20369;-69
2022/08/26 02:10:44;;;;;;;;;;;;;;;14.99;71.12;101150.75;4414715;32;19954;-69
2022/08/26 02:13:10;;;;;;;;;;;;;;;14.94;71.39;101162.69;4430044;32;19992;-69
2022/08/26 02:15:36;;;;;;;;;;;;;;;14.97;71.12;101168.19;4428106;32;19992;-69
2022/08/26 02:18:03;;;;;;;;;;;;;;;14.97;71.16;101164.59;4431057;32;20264;-69
2022/08/26 02:20:29;;;;;;;;;;;;;;;14.92;70.69;101165.97;4428908;32;19961;-69
2022/08/26 02:22:56;;;;;;;;;;;;;;;15.07;70.37;101158.53;4428048;32;19957;-69
2022/08/26 02:27:56;;;;;;;;;;;;;;;15.56;69.58;101165.22;3953163;32;15723660;-69
2022/08/26 02:30:27;;;;;;;;;;;;;;;15.56;69.58;101165.22;4428784;32;20546;-69
2022/08/26 02:32:53;;;;;;;;;;;;;;;15.19;70.10;101165.41;4429943;32;20376;-69
2022/08/26 02:35:20;;;;;;;;;;;;;;;15.22;69.90;101167.34;4427279;32;19993;-69
2022/08/26 02:37:46;;;;;;;;;;;;;;;15.27;69.62;101161.84;4428498;32;21527;-69
2022/08/26 02:40:14;;;;;;;;;;;;;;;15.18;69.63;101158.13;4432020;32;20328;-69
2022/08/26 02:42:39;;;;;;;;;;;;;;;15.09;70.09;101160.91;4430275;32;19953;-69
2022/08/26 02:45:05;;;;;;;;;;;;;;;15.10;69.80;101157.59;4426916;32;20309;-69
2022/08/26 02:47:31;;;;;;;;;;;;;;;15.18;69.80;101158.13;4428666;32;20434;-69
2022/08/26 02:49:56;;;;;;;;;;;;;;;15.20;69.66;101158.47;4427612;32;19987;-69
2022/08/26 02:52:21;;;;;;;;;;;;;;;15.28;69.29;101157.75;4430219;32;19961;-69
2022/08/26 02:54:47;;;;;;;;;;;;;;;15.32;68.90;101163.31;4433099;32;19949;-69
2022/08/26 02:57:13;;;;;;;;;;;;;;;15.36;68.84;101163.97;4428161;32;19976;-69
2022/08/26 02:59:39;;;;;;;;;;;;;;;15.35;68.63;101157.50;4428175;32;19961;-69
2022/08/26 03:02:05;;;;;;;;;;;;;;;15.41;68.52;101152.06;4427148;32;19949;-69
2022/08/26 03:04:31;;;;;;;;;;;;;;;15.45;68.29;101159.19;4429029;32;20349;-69
2022/08/26 03:06:57;;;;;;;;;;;;;;;15.48;68.11;101148.94;4428422;32;19987;-69
2022/08/26 03:09:23;;;;;;;;;;;;;;;15.44;68.36;101140.56;4432549;32;19973;-69
2022/08/26 03:11:49;;;;;;;;;;;;;;;15.58;67.74;101144.91;4429806;32;19953;-69
2022/08/26 03:14:14;;;;;;;;;;;;;;;15.57;67.81;101143.34;4429048;32;19996;-69
2022/08/26 03:16:40;;;;;;;;;;;;;;;15.64;68.02;101141.03;4430711;32;20405;-69
2022/08/26 03:19:06;;;;;;;;;;;;;;;15.64;68.09;101143.88;4431176;32;20385;-69
2022/08/26 03:21:32;;;;;;;;;;;;;;;15.75;67.69;101143.47;4430312;32;20379;-69
2022/08/26 03:23:58;;;;;;;;;;;;;;;15.74;66.93;101142.66;4429566;32;20330;-69
2022/08/26 03:26:24;;;;;;;;;;;;;;;15.83;67.19;101139.88;4431170;32;20427;-69
2022/08/26 03:31:35;;;;;;;;;;;;;;;15.90;66.95;101135.97;4426548;32;19989;-69
2022/08/26 03:34:00;;;;;;;;;;;;;;;15.92;67.04;101136.28;4431450;32;20277;-69
2022/08/26 03:36:26;;;;;;;;;;;;;;;15.94;67.22;101130.94;4428078;32;19992;-69
2022/08/26 03:38:51;;;;;;;;;;;;;;;15.97;66.96;101135.69;4419580;32;19950;-69
2022/08/26 03:41:17;;;;;;;;;;;;;;;16.04;66.87;101132.56;4420428;32;20313;-69
2022/08/26 03:43:42;;;;;;;;;;;;;;;16.00;66.97;101134.75;4418592;32;19964;-69
2022/08/26 03:46:10;;;;;;;;;;;;;;;15.98;66.92;101125.91;4413650;32;21064;-69
2022/08/26 03:48:38;;;;;;;;;;;;;;;16.02;67.09;101128.59;4418866;32;20661;-69
2022/08/26 03:51:14;;;;;;;;;;;;;;;15.98;67.33;101129.53;4420385;32;19994;-69
2022/08/26 03:53:39;;;;;;;;;;;;;;;15.96;66.93;101125.59;4420521;32;20476;-69
2022/08/26 03:56:05;;;;;;;;;;;;;;;16.04;66.58;101124.03;4421340;32;20371;-69
2022/08/26 03:58:31;;;;;;;;;;;;;;;16.07;66.44;101136.53;4415051;32;20051;-69
2022/08/26 04:00:57;;;;;;;;;;;;;;;16.02;66.85;101124.50;4415486;32;20021;-69
2022/08/26 04:06:13;;;;;;;;;;;;;;;16.10;66.47;101127.84;4419386;32;20459;-69
2022/08/26 04:08:38;;;;;;;;;;;;;;;16.16;66.31;101128.00;4419444;32;19950;-69
2022/08/26 04:11:04;;;;;;;;;;;;;;;16.12;66.39;101128.19;4420753;32;19961;-69
2022/08/26 04:13:31;;;;;;;;;;;;;;;16.12;66.24;101127.38;4420357;32;20035;-69
2022/08/26 04:15:56;;;;;;;;;;;;;;;16.14;66.47;101125.66;4415745;32;20004;-69
2022/08/26 04:18:22;;;;;;;;;;;;;;;16.13;66.10;101120.47;4415372;32;20393;-69
2022/08/26 04:20:49;;;;;;;;;;;;;;;16.08;66.71;101123.91;4418227;32;20016;-69
2022/08/26 04:23:15;;;;;;;;;;;;;;;16.07;66.83;101123.09;4417856;32;19961;-69
2022/08/26 04:25:41;;;;;;;;;;;;;;;16.05;66.84;101125.63;4418524;32;19981;-68
2022/08/26 04:28:07;;;;;;;;;;;;;;;15.90;67.08;101125.37;4418269;32;19965;-69
2022/08/26 04:30:35;;;;;;;;;;;;;;;15.96;66.98;101129.19;4417569;32;20346;-69
2022/08/26 04:33:03;;;;;;;;;;;;;;;15.90;67.23;101128.22;4417867;32;20018;-69
2022/08/26 04:35:28;;;;;;;;;;;;;;;15.85;67.58;101123.19;4416913;32;19945;-69
2022/08/26 04:37:54;;;;;;;;;;;;;;;15.88;67.61;101115.78;4415945;32;20303;-69
2022/08/26 04:40:20;;;;;;;;;;;;;;;15.77;67.81;101119.03;4421919;32;19949;-69
2022/08/26 04:42:45;;;;;;;;;;;;;;;15.78;67.83;101122.66;4417764;32;19977;-69
2022/08/26 04:45:10;;;;;;;;;;;;;;;15.69;68.15;101123.41;4417254;32;20090;-69
2022/08/26 04:47:36;;;;;;;;;;;;;;;15.69;68.36;101123.41;4416319;32;19984;-69
2022/08/26 04:50:02;;;;;;;;;;;;;;;15.72;68.45;101119.66;4416213;32;20004;-69
2022/08/26 04:52:28;;;;;;;;;;;;;;;15.73;68.47;101120.41;4416959;32;20291;-69
2022/08/26 04:54:53;;;;;;;;;;;;;;;15.71;68.45;101120.09;4418658;32;19989;-69
2022/08/26 04:57:19;;;;;;;;;;;;;;;15.74;67.84;101119.94;4419969;32;20407;-69
2022/08/26 04:59:44;;;;;;;;;;;;;;;15.69;67.95;101119.78;4415581;32;20303;-69
2022/08/26 05:02:10;;;;;;;;;;;;;;;15.74;68.39;101114.28;4415607;32;20377;-69
2022/08/26 05:04:36;;;;;;;;;;;;;;;15.70;68.22;101116.47;4416395;32;20038;-69
2022/08/26 05:07:01;;;;;;;;;;;;;;;15.80;67.74;101112.41;4414657;32;19965;-69
2022/08/26 05:09:26;;;;;;;;;;;;;;;15.87;67.42;101114.97;4419282;32;19960;-69
2022/08/26 05:11:52;;;;;;;;;;;;;;;15.88;67.82;101107.25;4419537;32;19958;-68
2022/08/26 05:14:18;;;;;;;;;;;;;;;15.94;67.77;101111.06;4414080;32;20019;-69
2022/08/26 05:16:44;;;;;;;;;;;;;;;16.04;67.27;101117.59;4413920;32;20206;-69
2022/08/26 05:19:10;;;;;;;;;;;;;;;16.11;67.27;101108.78;4417612;32;19993;-69
2022/08/26 05:21:37;;;;;;;;;;;;;;;16.17;66.81;101119.03;4416408;32;20256;-69
2022/08/26 05:24:03;;;;;;;;;;;;;;;16.34;66.83;101103.31;4415959;32;19964;-69
2022/08/26 05:26:30;;;;;;;;;;;;;;;16.40;66.52;101109.16;4417969;32;19964;-69
2022/08/26 05:28:56;;;;;;;;;;;;;;;16.41;66.09;101110.75;4416887;32;19970;-69
2022/08/26 05:31:23;;;;;;;;;;;;;;;16.51;65.62;101113.16;4414286;32;19989;-69
2022/08/26 05:33:48;;;;;;;;;;;;;;;16.53;65.37;101110.66;4415637;32;20436;-69
2022/08/26 05:36:16;;;;;;;;;;;;;;;16.51;65.50;101109.53;4417705;32;19973;-69
2022/08/26 05:38:42;;;;;;;;;;;;;;;16.54;65.74;101111.44;4413952;32;20011;-69
2022/08/26 05:43:51;;;;;;;;;;;;;;;17.20;64.05;101113.38;3964209;31;15716376;-68
2022/08/26 05:46:18;;;;;;;;;;;;;;;17.20;64.05;101113.38;4447481;32;20003;-68
2022/08/26 05:48:43;;;;;;;;;;;;;;;16.87;64.71;101118.91;4446011;32;19953;-68
2022/08/26 05:51:09;;;;;;;;;;;;;;;17.01;64.55;101118.28;4442112;32;19993;-68
2022/08/26 05:53:36;;;;;;;;;;;;;;;17.19;63.81;101126.81;4443730;32;19966;-68
2022/08/26 05:56:02;;;;;;;;;;;;;;;17.29;63.14;101125.53;4444333;32;20018;-68
2022/08/26 05:58:28;;;;;;;;;;;;;;;17.35;62.98;101123.62;4444139;32;20290;-68
2022/08/26 06:01:02;;;;;;;;;;;;;;;17.34;62.37;101129.81;4445670;32;19992;-68
2022/08/26 06:03:30;;;;;;;;;;;;;;;17.45;62.24;101127.28;4443368;32;20004;-69
2022/08/26 06:05:55;;;;;;;;;;;;;;;17.43;62.36;101130.59;4441302;32;19959;-68
2022/08/26 06:08:21;;;;;;;;;;;;;;;17.60;62.13;101129.00;4443299;32;19965;-68
2022/08/26 06:13:25;;;;;;;;;;;;;;;18.30;60.02;101141.09;3960003;32;15722392;-69
2022/08/26 06:15:51;;;;;;;;;;;;;;;18.30;60.02;101141.09;4435518;32;19984;-67
2022/08/26 06:18:19;;;;;;;;;;;;;;;18.01;60.25;101140.91;4434467;32;19953;-67
2022/08/26 06:20:45;;;;;;;;;;;;;;;18.08;60.69;101146.25;4435310;32;19949;-68
2022/08/26 06:25:57;;;;;;;;;;;;;;;18.40;59.78;101151.19;4436351;32;19953;-68
2022/08/26 06:28:23;;;;;;;;;;;;;;;18.54;59.17;101150.50;4432730;32;19941;-68
2022/08/26 06:30:49;;;;;;;;;;;;;;;18.68;58.68;101146.94;4434554;32;20002;-68
2022/08/26 06:33:15;;;;;;;;;;;;;;;18.72;58.30;101156.88;4435192;32;19993;-69
2022/08/26 06:35:41;;;;;;;;;;;;;;;18.81;58.51;101158.91;4434045;32;19995;-68
2022/08/26 06:38:08;;;;;;;;;;;;;;;18.95;58.26;101147.53;4436178;32;20473;-68
2022/08/26 06:40:39;;;;;;;;;;;;;;;19.02;57.91;101154.94;4424855;32;20271;-69
2022/08/26 06:43:04;;;;;;;;;;;;;;;19.09;57.84;101158.19;4437785;32;20008;-69
2022/08/26 06:45:30;;;;;;;;;;;;;;;19.16;57.52;101154.19;4437453;32;20425;-68
2022/08/26 06:47:55;;;;;;;;;;;;;;;19.14;56.85;101148.16;4434257;32;20520;-68
2022/08/26 06:50:21;;;;;;;;;;;;;;;19.10;57.58;101147.56;4434041;32;20288;-68
2022/08/26 06:52:47;;;;;;;;;;;;;;;19.09;57.40;101168.84;4436890;32;20624;-68
2022/08/26 06:55:12;;;;;;;;;;;;;;;19.04;57.20;101158.87;4434685;32;19961;-68
2022/08/26 06:57:38;;;;;;;;;;;;;;;18.95;56.88;101163.84;4435049;32;19945;-68
2022/08/26 07:00:07;;;;;;;;;;;;;;;19.04;57.45;101156.03;4436819;32;19949;-68
2022/08/26 07:02:33;;;;;;;;;;;;;;;19.18;56.90;101157.34;4436368;32;19993;-69
2022/08/26 07:04:59;;;;;;;;;;;;;;;19.41;55.99;101157.31;4434794;32;19946;-68
2022/08/26 07:07:24;;;;;;;;;;;;;;;19.70;54.45;101162.28;4433153;32;19989;-69
2022/08/26 07:09:49;;;;;;;;;;;;;;;19.84;54.39;101158.63;4434786;32;19996;-69
2022/08/26 07:12:16;;;;;;;;;;;;;;;20.19;53.23;101162.37;4437120;32;20060;-69
2022/08/26 07:14:42;;;;;;;;;;;;;;;20.53;51.70;101155.91;4435337;32;20357;-69
2022/08/26 07:17:07;;;;;;;;;;;;;;;20.84;51.37;101167.53;4432491;32;21097;-69
2022/08/26 07:19:33;;;;;;;;;;;;;;;21.05;50.90;101171.22;4432651;32;21112;-69
2022/08/26 07:22:00;;;;;;;;;;;;;;;21.36;49.97;101171.34;4435632;32;20000;-68
2022/08/26 07:24:27;;;;;;;;;;;;;;;21.24;50.46;101167.56;4426078;32;20347;-68
2022/08/26 07:26:52;;;;;;;;;;;;;;;21.77;49.48;101161.41;4426636;32;20013;-68
2022/08/26 07:29:18;;;;;;;;;;;;;;;22.07;48.59;101164.81;4423540;32;20046;-68
2022/08/26 07:31:44;;;;;;;;;;;;;;;22.29;48.40;101167.84;4422216;32;20328;-68
2022/08/26 07:34:12;;;;;;;;;;;;;;;22.43;47.92;101169.78;4421619;32;19996;-68
2022/08/26 07:36:37;;;;;;;;;;;;;;;22.67;47.43;101170.25;4424477;32;20001;-68
2022/08/26 07:39:03;;;;;;;;;;;;;;;22.58;46.94;101167.59;4423995;32;19965;-68
2022/08/26 07:41:28;;;;;;;;;;;;;;;22.78;46.00;101170.31;4424588;32;19963;-68
2022/08/26 07:43:54;;;;;;;;;;;;;;;22.79;46.31;101174.72;4427897;32;19949;-68
2022/08/26 07:46:19;;;;;;;;;;;;;;;22.73;45.81;101174.72;4424092;32;20299;-68
2022/08/26 07:48:46;;;;;;;;;;;;;;;22.97;45.94;101177.97;4423647;32;20008;-68
2022/08/26 07:51:13;;;;;;;;;;;;;;;23.14;45.64;101175.97;4421962;32;19998;-69
2022/08/26 07:53:39;;;;;;;;;;;;;;;22.99;45.44;101180.34;4422977;32;20419;-68
2022/08/26 07:56:05;;;;;;;;;;;;;;;23.19;45.34;101180.16;4425439;32;20012;-70
2022/08/26 07:58:30;;;;;;;;;;;;;;;23.17;45.08;101182.78;4425699;32;19997;-69
2022/08/26 08:00:56;;;;;;;;;;;;;;;23.19;44.34;101183.03;4424112;32;19988;-68
2022/08/26 08:03:21;;;;;;;;;;;;;;;22.77;44.96;101180.22;4425577;32;19965;-69
2022/08/26 08:05:48;;;;;;;;;;;;;;;22.95;44.16;101183.44;4423488;32;20442;-69
2022/08/26 08:08:14;;;;;;;;;;;;;;;23.12;44.82;101180.66;4422816;32;19965;-69
2022/08/26 08:10:40;;;;;;;;;;;;;;;22.99;44.04;101186.09;4423166;32;20047;-69
2022/08/26 08:13:06;;;;;;;;;;;;;;;23.33;43.47;101182.87;4423620;32;20045;-69
2022/08/26 08:15:33;;;;;;;;;;;;;;;23.30;43.62;101188.88;4425733;32;19957;-69
2022/08/26 08:17:59;;;;;;;;;;;;;;;23.41;43.66;101183.19;4424604;32;19968;-69
2022/08/26 08:20:25;;;;;;;;;;;;;;;23.58;42.83;101186.06;4423345;32;19953;-69
2022/08/26 08:22:51;;;;;;;;;;;;;;;23.32;42.71;101186.28;4424188;32;19961;-69
2022/08/26 08:25:17;;;;;;;;;;;;;;;23.10;43.05;101180.41;4424184;32;20438;-69
2022/08/26 08:27:44;;;;;;;;;;;;;;;22.85;42.98;101176.34;4422290;32;19946;-69
2022/08/26 08:30:10;;;;;;;;;;;;;;;23.09;42.98;101175.94;4423381;32;20045;-69
2022/08/26 08:32:37;;;;;;;;;;;;;;;23.12;42.88;101183.53;4425296;32;20036;-69
2022/08/26 08:35:03;;;;;;;;;;;;;;;23.43;42.30;101186.28;4423951;32;19989;-69
2022/08/26 08:37:28;;;;;;;;;;;;;;;23.91;41.20;101174.66;4424214;32;20295;-69
2022/08/26 08:39:54;;;;;;;;;;;;;;;24.31;40.01;101174.97;4422180;32;20025;-69
2022/08/26 08:42:29;;;;;;;;;;;;;;;24.84;39.33;101186.16;4425305;32;20005;-69
2022/08/26 08:44:57;;;;;;;;;;;;;;;25.09;38.91;101182.16;4423165;32;20450;-69
2022/08/26 08:50:03;;;;;;;;;;;;;;;26.19;37.24;101182.87;3952077;32;15724281;-69
2022/08/26 08:52:31;;;;;;;;;;;;;;;26.19;37.24;101182.87;4428836;32;20000;-69
2022/08/26 08:54:57;;;;;;;;;;;;;;;25.77;36.96;101180.56;4429295;32;20503;-69
2022/08/26 09:00:11;;;;;;;;;;;;;;;27.80;33.63;101189.25;3956248;32;15722106;-69
2022/08/26 09:05:20;;;;;;;;;;;;;;;27.18;34.54;101174.00;3963045;31;15718838;-69
2022/08/26 09:07:52;;;;;;;;;;;;;;;27.18;34.54;101174.00;4444728;32;19949;-69
2022/08/26 09:10:25;;;;;;;;;;;;;;;27.09;33.92;101174.38;4442914;32;19999;-69
2022/08/26 09:12:51;;;;;;;;;;;;;;;27.47;32.88;101175.25;4443729;32;19953;-69
2022/08/26 09:15:21;;;;;;;;;;;;;;;27.64;32.51;101172.87;4443509;32;19953;-69
2022/08/26 09:18:06;;;;;;;;;;;;;;;27.38;32.84;101175.63;4443068;32;19984;-69
2022/08/26 09:23:11;;;;;;;;;;;;;;;27.02;33.40;101166.31;3951045;32;15724502;-69
2022/08/26 09:25:46;;;;;;;;;;;;;;;26.70;33.86;101170.38;4428935;32;19954;-70
2022/08/26 09:28:15;;;;;;;;;;;;;;;26.82;33.83;101163.16;4431708;32;19954;-70
2022/08/26 09:30:40;;;;;;;;;;;;;;;27.00;33.20;101165.31;4428241;32;20280;-70
2022/08/26 09:33:09;;;;;;;;;;;;;;;27.07;33.08;101167.59;4432172;32;19949;-70
2022/08/26 09:35:38;;;;;;;;;;;;;;;27.43;32.56;101166.09;4428966;32;20405;-70
2022/08/26 09:38:24;;;;;;;;;;;;;;;27.50;33.04;101164.69;4431318;32;20224;-70
2022/08/26 09:40:58;;;;;;;;;;;;;;;27.62;33.16;101172.66;4425442;32;20378;-69
2022/08/26 09:43:24;;;;;;;;;;;;;;;27.51;32.95;101164.12;4431055;32;19949;-69
2022/08/26 09:45:53;;;;;;;;;;;;;;;27.72;32.74;101159.37;4426868;32;20336;-69
2022/08/26 09:48:35;;;;;;;;;;;;;;;28.00;31.88;101170.53;4433493;32;19945;-69
2022/08/26 09:51:03;;;;;;;;;;;;;;;28.08;31.32;101169.37;4430259;32;20001;-69
2022/08/26 09:53:31;;;;;;;;;;;;;;;28.27;31.04;101166.41;4430304;32;20099;-70
2022/08/26 09:56:16;;;;;;;;;;;;;;;28.58;30.96;101168.50;4427921;32;19949;-69
2022/08/26 09:58:43;;;;;;;;;;;;;;;28.65;31.12;101162.84;4429208;32;20027;-69
2022/08/26 10:01:29;;;;;;;;;;;;;;;28.89;30.86;101171.34;4412580;32;20088;-70
2022/08/26 10:04:03;;;;;;;;;;;;;;;29.24;29.95;101170.16;4431950;32;19985;-70
2022/08/26 10:06:28;;;;;;;;;;;;;;;29.27;29.85;101169.03;4428239;32;20202;-69
2022/08/26 10:08:56;;;;;;;;;;;;;;;29.44;29.48;101162.84;4429110;32;20003;-70
2022/08/26 10:11:41;;;;;;;;;;;;;;;29.67;28.92;101149.44;4427435;32;19954;-69
2022/08/26 10:14:12;;;;;;;;;;;;;;;29.89;28.62;101158.41;4429762;32;20380;-70
2022/08/26 10:16:45;;;;;;;;;;;;;;;29.57;28.89;101154.12;4429519;32;19975;-70
2022/08/26 10:19:13;;;;;;;;;;;;;;;30.05;27.85;101163.03;4426769;32;19953;-70
2022/08/26 10:24:21;;;;;;;;;;;;;;;31.24;26.50;101163.81;3953584;32;15722441;-70
2022/08/26 10:26:54;;;;;;;;;;;;;;;31.24;26.50;101163.81;4426158;32;19998;-70
2022/08/26 10:29:24;;;;;;;;;;;;;;;30.79;26.72;101159.28;4426982;32;20008;-70
2022/08/26 10:31:51;;;;;;;;;;;;;;;31.27;26.46;101172.16;4425668;32;20361;-70
2022/08/26 10:34:18;;;;;;;;;;;;;;;31.16;26.37;101168.81;4428561;32;19962;-70
2022/08/26 10:36:52;;;;;;;;;;;;;;;31.74;25.79;101163.88;4427941;32;20229;-68
2022/08/26 10:39:33;;;;;;;;;;;;;;;31.98;25.34;101156.78;4429375;32;20058;-68
2022/08/26 10:42:02;;;;;;;;;;;;;;;32.22;25.18;101159.16;4426363;32;19969;-68
2022/08/26 10:44:30;;;;;;;;;;;;;;;32.35;24.80;101156.84;4428756;32;19956;-68
2022/08/26 10:47:00;;;;;;;;;;;;;;;32.30;25.12;101160.69;4430664;32;19996;-69
2022/08/26 10:49:25;;;;;;;;;;;;;;;32.55;24.76;101158.03;4428895;32;20507;-69
2022/08/26 10:52:10;;;;;;;;;;;;;;;32.87;24.89;101158.22;4425996;32;20024;-69
2022/08/26 10:54:40;;;;;;;;;;;;;;;32.75;25.07;101159.94;4430548;32;19961;-69
2022/08/26 11:02:50;;;;;;;;;;;;;;;33.57;23.67;101149.47;4433563;32;20731;-70
2022/08/26 11:05:18;;;;;;;;;;;;;;;33.34;23.85;101154.59;4436146;32;20348;-69
2022/08/26 11:07:45;;;;;;;;;;;;;;;33.61;23.49;101152.75;4435032;32;19988;-69
2022/08/26 11:18:03;;;;;;;;;;;;;;;34.97;22.23;101150.41;3951468;32;15725626;-70
2022/08/26 11:20:36;;;;;;;;;;;;;;;34.97;22.23;101150.41;4428491;32;20030;-70
2022/08/26 11:23:21;;;;;;;;;;;;;;;34.74;22.17;101143.22;4424915;32;19966;-70
2022/08/26 11:26:07;;;;;;;;;;;;;;;35.19;21.55;101154.47;4432314;32;19997;-70
2022/08/26 11:28:49;;;;;;;;;;;;;;;35.03;21.40;101135.53;4429008;32;20264;-70
2022/08/26 11:33:56;;;;;;;;;;;;;;;36.22;20.09;101147.03;3960072;31;15736376;-70
2022/08/26 11:36:42;;;;;;;;;;;;;;;36.22;20.09;101147.03;4428857;32;19998;-70
2022/08/26 11:42:14;;;;;;;;;;;;;;;36.66;20.15;101138.91;3950589;32;15722093;-68
2022/08/26 11:44:42;;;;;;;;;;;;;;;36.66;20.15;101138.91;4436307;32;19997;-70
2022/08/26 11:47:09;;;;;;;;;;;;;;;36.40;20.40;101138.97;4433029;32;19973;-68
2022/08/26 11:49:36;;;;;;;;;;;;;;;36.41;20.17;101135.41;4434083;32;19971;-70
2022/08/26 11:52:11;;;;;;;;;;;;;;;36.82;19.96;101134.34;4434810;32;19961;-70
2022/08/26 11:54:38;;;;;;;;;;;;;;;36.72;19.76;101145.22;4434768;32;20016;-69
2022/08/26 11:57:04;;;;;;;;;;;;;;;37.02;19.51;101138.06;4436400;32;20008;-69
2022/08/26 11:59:35;;;;;;;;;;;;;;;36.73;19.88;101134.28;4436720;32;19990;-69
2022/08/26 12:02:01;;;;;;;;;;;;;;;36.54;19.57;101132.09;4422125;32;20021;-69
2022/08/26 12:04:29;;;;;;;;;;;;;;;36.53;19.87;101130.53;4422960;32;19983;-69
2022/08/26 12:06:57;;;;;;;;;;;;;;;36.91;19.17;101133.59;4432882;32;20316;-70
2022/08/26 12:09:33;;;;;;;;;;;;;;;37.01;18.97;101128.50;4434807;32;20028;-71
2022/08/26 12:12:15;;;;;;;;;;;;;;;37.44;18.51;101132.53;4434952;32;19965;-68
2022/08/26 12:14:40;;;;;;;;;;;;;;;36.26;19.53;101126.88;4437306;32;20315;-70
2022/08/26 12:17:09;;;;;;;;;;;;;;;36.23;19.51;101125.91;4435182;32;20000;-70
2022/08/26 12:19:34;;;;;;;;;;;;;;;35.99;20.10;101126.88;4433757;32;20030;-70
2022/08/26 12:22:07;;;;;;;;;;;;;;;35.56;20.37;101121.06;4435660;32;19961;-70
2022/08/26 12:24:33;;;;;;;;;;;;;;;36.07;20.33;101126.75;4422784;32;19989;-70
2022/08/26 12:27:18;;;;;;;;;;;;;;;36.59;19.84;101124.38;4437139;32;20057;-69
2022/08/26 12:29:44;;;;;;;;;;;;;;;36.81;19.28;101118.09;4431590;32;20000;-69
2022/08/26 12:32:13;;;;;;;;;;;;;;;37.03;19.12;101131.59;4434231;32;20054;-69
2022/08/26 12:34:40;;;;;;;;;;;;;;;36.94;19.00;101131.56;4432955;32;19961;-69
2022/08/26 12:37:06;;;;;;;;;;;;;;;36.47;19.27;101129.28;4433913;32;19997;-69
2022/08/26 12:39:34;;;;;;;;;;;;;;;35.75;20.22;101124.87;4434034;32;20041;-70
2022/08/26 12:42:00;;;;;;;;;;;;;;;34.77;21.13;101125.25;4435541;32;19961;-70
2022/08/26 12:44:31;;;;;;;;;;;;;;;34.21;21.82;101123.97;4434152;32;19976;-70
2022/08/26 12:47:01;;;;;;;;;;;;;;;32.19;24.28;101116.62;4433857;32;20269;-70
2022/08/26 12:49:26;;;;;;;;;;;;;;;31.96;24.67;101112.88;4433426;32;19992;-70
2022/08/26 12:51:51;;;;;;;;;;;;;;;31.25;25.51;101101.37;4425467;32;20042;-70
2022/08/26 12:54:57;;;;;;;;;;;;;;;30.79;26.01;101106.97;4423089;32;19953;-70
2022/08/26 12:57:10;;;;;;;;;;;;;;;30.53;26.51;101098.41;4424335;32;19969;-70
2022/08/26 12:59:35;;;;;;;;;;;;;;;30.18;26.94;101095.38;4423982;32;20051;-69
2022/08/26 13:02:00;;;;;;;;;;;;;;;29.73;27.94;101095.72;4420331;32;20129;-70
2022/08/26 13:04:42;;;;;;;;;;;;;;;30.28;27.28;101090.69;4422363;32;19953;-70
2022/08/26 13:07:11;;;;;;;;;;;;;;;31.11;26.30;101091.25;4420535;32;19963;-69
2022/08/26 13:09:37;;;;;;;;;;;;;;;31.41;26.02;101094.31;4420426;32;20365;-70
2022/08/26 13:12:03;;;;;;;;;;;;;;;32.06;25.18;101097.19;4424205;32;20392;-70
2022/08/26 13:14:28;;;;;;;;;;;;;;;31.88;25.43;101092.53;4425027;32;20019;-70
2022/08/26 13:16:53;;;;;;;;;;;;;;;32.11;25.14;101095.44;4422738;32;19958;-69
2022/08/26 13:19:21;;;;;;;;;;;;;;;32.45;24.89;101096.62;4421255;32;19989;-69
2022/08/26 13:21:47;;;;;;;;;;;;;;;32.27;24.91;101089.03;4423782;32;20083;-69
2022/08/26 13:24:16;;;;;;;;;;;;;;;32.46;24.85;101091.59;4423080;32;20011;-70
2022/08/26 13:26:43;;;;;;;;;;;;;;;32.66;24.63;101093.50;4424761;32;20009;-70
2022/08/26 13:29:08;;;;;;;;;;;;;;;32.27;25.02;101094.87;4423367;32;19964;-70